Latest Coastal Weather Observations for Gold Coast Seaway

IDQ60701

Issued at 6:15 pm EST Sunday 31 August 2014 (issued every 10 minutes, with the page automatically refreshed every 10 minutes)

About coastal observations | Map of coastal stations | Coastal observations for QLD | Marine services | Other Formats
Station Details ID: 040764 Name: GOLD COAST SEAWAY Lat: -27.94 Lon: 153.43 Height: 2.98 m
Data from the previous 72 hours. | See also: Recent months at Gold Coast Seaway
Date/Time
EST
Temp

°C
Wind Pressure Rain
since 9am
mm
Weather Cloud Vis
km
Sea
Height
m
Swell
Dir
 
Speed
knots
Gust
knots
hPa Trend Height
m
Period
s
Dir
31/06:00pm 18.6 SSE 14 17 1017.1 - 0.0 - - - - - - -
31/05:30pm 18.8 SE 15 18 1016.9 - 0.0 - - - - - - -
31/05:00pm 19.5 SE 16 19 1016.7 - 0.0 - - - - - - -
31/04:30pm 20.0 SE 17 19 1016.4 - 0.0 - - - - - - -
31/04:00pm 20.3 SE 16 18 1016.2 - 0.0 - - - - - - -
31/03:30pm 20.7 SE 16 18 1016.1 - 0.0 - - - - - - -
31/03:00pm 20.9 SE 16 19 1016.0 - 0.0 - - - - - - -
31/02:30pm 21.5 SE 15 17 1015.9 - 0.0 - - - - - - -
31/02:00pm 21.8 ESE 15 17 1016.0 - 0.0 - - - - - - -
31/01:30pm 21.7 SE 15 17 1016.1 - 0.0 - - - - - - -
31/01:00pm 22.4 ESE 12 15 1016.4 - 0.0 - - - - - - -
31/12:30pm 22.8 ESE 10 13 1016.8 - 0.0 - - - - - - -
31/12:00pm 23.2 ESE 9 10 1017.2 - 0.0 - - - - - - -
31/11:30am 23.2 ESE 7 9 1017.6 - 0.0 - - - - - - -
31/11:00am 22.5 E 5 6 1018.0 - 0.0 - - - - - - -
31/10:30am 22.1 SE 5 7 1018.3 - 0.0 - - - - - - -
31/10:00am 21.5 SSE 5 6 1018.7 - 0.0 - - - - - - -
31/09:30am 21.2 SSE 7 9 1018.6 - 0.0 - - - - - - -
31/09:00am 20.6 S 7 9 1018.8 - 0.0 - - - - - - -
31/08:30am 19.5 S 5 8 1019.0 - 0.0 - - - - - - -
31/08:00am 17.8 WSW 5 6 1018.9 - 0.0 - - - - - - -
31/07:30am 16.1 WSW 5 7 1018.8 - 0.0 - - - - - - -
31/07:00am 15.0 SW 7 8 1018.8 - 0.0 - - - - - - -
31/06:30am 13.8 SW 7 8 1018.6 - 0.0 - - - - - - -
31/06:00am 13.7 W 7 7 1018.4 - 0.0 - - - - - - -
31/05:30am 13.8 WSW 6 7 1018.1 - 0.0 - - - - - - -
31/05:00am 13.7 WSW 5 6 1017.8 - 0.0 - - - - - - -
31/04:30am 13.8 WNW 5 6 1017.8 - 0.0 - - - - - - -
31/04:00am 14.3 W 5 6 1017.8 - 0.0 - - - - - - -
31/03:30am 13.9 WSW 6 7 1017.6 - 0.0 - - - - - - -
31/03:00am 14.1 W 6 7 1017.7 - 0.0 - - - - - - -
31/02:30am 14.2 WNW 7 7 1017.6 - 0.0 - - - - - - -
31/02:00am 14.0 WNW 6 7 1017.7 - 0.0 - - - - - - -
31/01:30am 14.1 W 6 6 1017.8 - 0.0 - - - - - - -
31/01:00am 14.1 SW 4 5 1017.9 - 0.0 - - - - - - -
31/12:30am 14.7 SW 5 7 1018.1 - 0.0 - - - - - - -
31/12:00am 15.1 SW 5 7 1018.2 - 0.0 - - - - - - -
 
Date/Time
EST
Temp

°C
Wind Pressure Rain
since 9am
mm
Weather Cloud Vis
km
Sea
Height
m
Swell
Dir
 
Speed
knots
Gust
knots
hPa Trend Height
m
Period
s
Dir
30/11:30pm 15.0 WSW 5 6 1018.3 - 0.0 - - - - - - -
30/11:00pm 15.4 WSW 5 6 1018.4 - 0.0 - - - - - - -
30/10:30pm 15.7 WSW 5 5 1018.2 - 0.0 - - - - - - -
30/10:00pm 16.4 SSW 5 7 1018.2 - 0.0 - - - - - - -
30/09:30pm 17.6 S 10 13 1018.1 - 0.0 - - - - - - -
30/09:00pm 17.9 SSE 10 14 1018.0 - 0.0 - - - - - - -
30/08:30pm 17.8 S 11 14 1018.0 - 0.0 - - - - - - -
30/08:00pm 18.1 SSE 13 16 1017.9 - 0.0 - - - - - - -
30/07:30pm 18.4 SSE 15 17 1017.6 - 0.0 - - - - - - -
30/07:00pm 18.5 SSE 16 18 1017.3 - 0.0 - - - - - - -
30/06:30pm 18.6 SSE 15 17 1017.1 - 0.0 - - - - - - -
30/06:00pm 18.7 SSE 17 20 1017.0 - 0.0 - - - - - - -
30/05:30pm 19.0 SSE 18 20 1016.7 - 0.0 - - - - - - -
30/05:00pm 19.6 SSE 17 20 1016.7 - 0.0 - - - - - - -
30/04:30pm 20.4 SSE 16 19 1016.4 - 0.0 - - - - - - -
30/04:00pm 22.2 S 11 15 1016.2 - 0.0 - - - - - - -
30/03:30pm 21.4 SSE 15 18 1016.1 - 0.0 - - - - - - -
30/03:00pm 22.0 SE 15 18 1016.2 - 0.0 - - - - - - -
30/02:30pm 22.6 SE 12 14 1016.3 - 0.0 - - - - - - -
30/02:00pm 21.8 E 6 8 1016.6 - 0.0 - - - - - - -
30/01:30pm 21.4 ENE 6 7 1016.9 - 0.0 - - - - - - -
30/01:00pm 21.6 NE 7 8 1017.2 - 0.0 - - - - - - -
30/12:30pm 21.3 ENE 8 9 1017.6 - 0.0 - - - - - - -
30/12:00pm 21.2 E 6 7 1018.0 - 0.0 - - - - - - -
30/11:30am 21.8 E 6 7 1018.4 - 0.0 - - - - - - -
30/11:00am 20.7 E 6 7 1018.8 - 0.0 - - - - - - -
30/10:30am 21.6 E 6 7 1019.1 - 0.0 - - - - - - -
30/10:00am 20.9 NNW 5 7 1019.3 - 0.0 - - - - - - -
30/09:30am 19.7 NW 7 9 1019.6 - 0.0 - - - - - - -
30/09:00am 18.3 WNW 7 9 1019.8 - 0.0 - - - - - - -
30/08:30am 17.7 W 7 9 1019.9 - 0.0 - - - - - - -
30/08:00am 17.4 W 7 8 1019.8 - 0.0 - - - - - - -
30/07:30am 15.7 WNW 9 11 1019.7 - 0.0 - - - - - - -
30/07:00am 14.5 W 9 11 1019.5 - 0.0 - - - - - - -
30/06:30am 13.0 WNW 7 8 1019.3 - 0.0 - - - - - - -
30/06:00am 12.2 W 7 8 1019.0 - 0.0 - - - - - - -
30/05:30am 11.6 WNW 7 8 1018.6 - 0.0 - - - - - - -
30/05:00am 11.5 W 5 7 1018.7 - 0.0 - - - - - - -
30/04:30am 10.6 SW 5 6 1018.7 - 0.0 - - - - - - -
30/04:00am 11.3 WNW 6 7 1018.8 - 0.0 - - - - - - -
30/03:30am 12.0 WNW 7 7 1018.7 - 0.0 - - - - - - -
30/03:00am 12.5 WNW 7 8 1018.8 - 0.0 - - - - - - -
30/02:30am 12.5 WNW 6 7 1019.0 - 0.0 - - - - - - -
30/02:00am 11.8 WNW 6 7 1019.1 - 0.0 - - - - - - -
30/01:30am 11.9 SW 4 5 1019.2 - 0.0 - - - - - - -
30/01:00am 11.4 WSW 5 6 1019.2 - 0.0 - - - - - - -
30/12:30am 11.9 WSW 5 6 1019.4 - 0.0 - - - - - - -
30/12:00am 11.4 WNW 5 5 1019.6 - 0.0 - - - - - - -
 
Date/Time
EST
Temp

°C
Wind Pressure Rain
since 9am
mm
Weather Cloud Vis
km
Sea
Height
m
Swell
Dir
 
Speed
knots
Gust
knots
hPa Trend Height
m
Period
s
Dir
29/11:30pm 12.2 WNW 5 6 1019.8 - 0.0 - - - - - - -
29/11:00pm 13.3 WNW 6 7 1019.9 - 0.0 - - - - - - -
29/10:30pm 13.8 WSW 6 7 1020.0 - 0.0 - - - - - - -
29/10:00pm 13.8 SW 5 5 1020.2 - 0.0 - - - - - - -
29/09:30pm 13.6 SSW 5 6 1020.3 - 0.0 - - - - - - -
29/09:00pm 14.6 SSW 7 9 1020.3 - 0.0 - - - - - - -
29/08:30pm 14.6 S 7 8 1020.4 - 0.0 - - - - - - -
29/08:00pm 15.5 S 9 12 1020.5 - 0.0 - - - - - - -
29/07:30pm 16.3 S 11 17 1020.5 - 0.0 - - - - - - -
29/07:00pm 17.2 S 17 20 1020.2 - 0.0 - - - - - - -
29/06:30pm 17.6 SSE 18 21 1020.0 - 0.0 - - - - - - -
29/06:00pm 17.8 SSE 18 21 1019.7 - 0.0 - - - - - - -
29/05:30pm 17.8 SSE 19 23 1019.4 - 0.0 - - - - - - -
29/05:00pm 18.2 SSE 19 23 1019.1 - 0.0 - - - - - - -
29/04:30pm 18.8 SE 19 22 1019.0 - 0.0 - - - - - - -
29/04:00pm 18.9 SE 19 22 1019.1 - 0.0 - - - - - - -
29/03:30pm 19.6 SE 18 21 1019.0 - 0.0 - - - - - - -
29/03:00pm 18.9 SE 20 23 1019.0 - 0.0 - - - - - - -
29/02:30pm 19.2 SE 18 20 1019.1 - 0.0 - - - - - - -
29/02:00pm 19.7 SE 18 21 1019.3 - 0.0 - - - - - - -
29/01:30pm 19.5 SE 19 21 1019.6 - 0.0 - - - - - - -
29/01:00pm 20.8 SE 14 17 1020.0 - 0.0 - - - - - - -
29/12:30pm 21.2 SE 12 15 1020.4 - 0.0 - - - - - - -
29/12:00pm 20.8 SSE 10 12 1021.0 - 0.0 - - - - - - -
29/11:30am 20.9 SSE 12 16 1021.4 - 0.0 - - - - - - -
29/11:00am 20.4 SSE 14 17 1021.8 - 0.0 - - - - - - -
29/10:30am 20.1 S 13 17 1022.2 - 0.0 - - - - - - -
29/10:00am 19.6 S 13 18 1022.6 - 0.0 - - - - - - -
29/09:30am 19.2 S 12 17 1022.6 - 0.0 - - - - - - -
29/09:00am 18.4 S 13 17 1022.7 - 0.0 - - - - - - -
29/08:30am 17.6 SSW 6 8 1022.5 - 0.0 - - - - - - -
29/08:00am 16.6 SSW 5 7 1022.5 - 0.0 - - - - - - -
29/07:30am 15.5 SSW 4 6 1022.3 - 0.0 - - - - - - -
29/07:00am 14.2 SW 5 6 1021.9 - 0.0 - - - - - - -
29/06:30am 12.8 SSW 8 10 1021.7 - 0.0 - - - - - - -
29/06:00am 12.1 S 8 11 1021.5 - 0.0 - - - - - - -
29/05:30am 12.4 S 8 10 1021.2 - 0.0 - - - - - - -
29/05:00am 12.2 S 5 8 1021.1 - 0.0 - - - - - - -
29/04:30am 13.2 SSW 6 8 1020.8 - 0.0 - - - - - - -
29/04:00am 13.5 SSW 5 7 1020.8 - 0.0 - - - - - - -
29/03:30am 13.4 SSW 6 8 1020.8 - 0.0 - - - - - - -
29/03:00am 12.8 SSW 5 7 1021.0 - 0.0 - - - - - - -
29/02:30am 13.5 SSW 5 8 1020.9 - 0.0 - - - - - - -
29/02:00am 14.1 WSW 5 8 1020.9 - 0.0 - - - - - - -
29/01:30am 13.9 S 7 10 1021.0 - 0.0 - - - - - - -
29/01:00am 14.9 S 10 15 1021.3 - 0.0 - - - - - - -
29/12:30am 14.7 S 9 12 1021.4 - 0.0 - - - - - - -
29/12:00am 15.1 S 12 17 1021.3 - 0.0 - - - - - - -
 
Date/Time
EST
Temp

°C
Wind Pressure Rain
since 9am
mm
Weather Cloud Vis
km
Sea
Height
m
Swell
Dir
 
Speed
knots
Gust
knots
hPa Trend Height
m
Period
s
Dir
28/11:30pm 15.7 S 14 20 1021.3 - 0.0 - - - - - - -
28/11:00pm 15.6 S 14 17 1021.1 - 0.0 - - - - - - -
28/10:30pm 15.6 S 11 15 1021.3 - 0.0 - - - - - - -
28/10:00pm 15.6 S 10 15 1021.5 - 0.0 - - - - - - -
28/09:30pm 15.9 S 12 16 1021.7 - 0.0 - - - - - - -
28/09:00pm 15.8 S 11 16 1021.7 - 0.0 - - - - - - -
28/08:30pm 16.2 S 16 26 1021.7 - 0.0 - - - - - - -
28/08:21pm 16.2 S 18 26 1021.7 - 0.0 - - - - - - -
28/08:00pm 16.4 S 12 16 1021.6 - 0.0 - - - - - - -
28/07:30pm 16.4 S 9 13 1021.2 - 0.0 - - - - - - -
28/07:00pm 16.7 S 13 21 1021.0 - 0.0 - - - - - - -
28/06:44pm 17.3 S 15 26 1020.8 - 0.0 - - - - - - -
28/06:30pm 17.2 S 12 16 1020.5 - 0.0 - - - - - - -

Other Formats:

Comma delimited format used in spreadsheet applications
http://www.bom.gov.au/fwo/IDQ60701/IDQ60701.94580.axf

JavaScript Object Notation format (JSON) in row-major order
http://www.bom.gov.au/fwo/IDQ60701/IDQ60701.94580.json